This is the latest recevied weather packets stored in our database for station/object PY3MO-11. If no packets are shown the sender has not sent any weather packets the latest 10 day(s).
| Time | Temp. | Humidity | Pressure | Rain* | Wind** | Luminosity | Snow |
|---|---|---|---|---|---|---|---|
| 1778003640 | 27.78° C | 46% | 1018.7 hPa | 0 mm | - | - | - |
| 1778003340 | 27.22° C | 51% | 1018.8 hPa | 0 mm | - | - | - |
| 1778003040 | 27.78° C | 45% | 1018.9 hPa | 0 mm | - | - | - |
| 1778002739 | 27.78° C | 45% | 1018.9 hPa | 0 mm | - | - | - |
| 1778002439 | 28.33° C | 46% | 1018.8 hPa | 0 mm | - | - | - |
| 1778002139 | 28.33° C | 46% | 1018.8 hPa | 0 mm | - | - | - |
| 1778001839 | 27.78° C | 48% | 1018.8 hPa | 0 mm | - | - | - |
| 1778001539 | 27.78° C | 49% | 1019.1 hPa | 0 mm | - | - | - |
| 1778001238 | 27.78° C | 50% | 1019 hPa | 0 mm | - | - | - |
| 1778000940 | 26.67° C | 52% | 1019.1 hPa | 0 mm | - | - | - |
| 1778000640 | 27.22° C | 52% | 1019.1 hPa | 0 mm | - | - | - |
| 1778000340 | 27.22° C | 53% | 1019.2 hPa | 0 mm | - | - | - |
| 1778000040 | 27.22° C | 54% | 1019.2 hPa | 0 mm | - | - | - |
| 1777999740 | 26.67° C | 54% | 1019.4 hPa | 0 mm | - | - | - |
| 1777999439 | 27.22° C | 54% | 1019.5 hPa | 0 mm | - | - | - |
| 1777999139 | 26.67° C | 55% | 1019.5 hPa | 0 mm | - | - | - |
| 1777998839 | 26.67° C | 56% | 1019.5 hPa | 0 mm | - | - | - |
| 1777998539 | 26.67° C | 57% | 1019.6 hPa | 0 mm | - | - | - |
| 1777998239 | 26.67° C | 59% | 1019.8 hPa | 0 mm | - | - | - |
| 1777997939 | 26.67° C | 59% | 1019.7 hPa | 0 mm | - | - | - |
| 1777997639 | 26.67° C | 59% | 1019.8 hPa | 0 mm | - | - | - |
| 1777997340 | 26.67° C | 60% | 1019.8 hPa | 0 mm | - | - | - |
| 1777997041 | 26.67° C | 59% | 1019.9 hPa | 0 mm | - | - | - |
| 1777996740 | 26.67° C | 60% | 1020.1 hPa | 0 mm | - | - | - |
| 1777996441 | 26.11° C | 60% | 1019.9 hPa | 0 mm | - | - | - |
* Rain latest hour (hover to see other rain measurements)
** Current wind speed in m/s (hover to see current wind gust speed)